createdAt,value
2022-09-28T00:01:16.935Z,25.05
2022-09-28T00:03:48.812Z,21.17
2022-09-28T00:06:19.004Z,26.58
2022-09-28T00:08:47.576Z,25.38
2022-09-28T00:11:21.044Z,27.33
2022-09-28T00:13:53.924Z,28.00
2022-09-28T00:16:24.019Z,25.33
2022-09-28T00:18:52.568Z,25.88
2022-09-28T00:21:24.640Z,29.75
2022-09-28T00:24:12.921Z,25.73
2022-09-28T00:26:51.998Z,28.48
2022-09-28T00:29:21.938Z,33.80
2022-09-28T00:31:52.805Z,35.60
2022-09-28T00:34:20.500Z,34.65
2022-09-28T00:36:48.575Z,40.75
2022-09-28T00:39:19.068Z,42.58
2022-09-28T00:41:46.860Z,52.40
2022-09-28T00:44:31.049Z,49.95
2022-09-28T00:47:15.508Z,43.78
2022-09-28T00:49:50.005Z,30.15
2022-09-28T00:52:45.988Z,31.63
2022-09-28T00:55:17.970Z,30.85
2022-09-28T00:57:50.679Z,31.13
2022-09-28T01:00:19.093Z,28.90
2022-09-28T01:02:47.752Z,31.00
2022-09-28T01:05:15.368Z,29.38
2022-09-28T01:07:47.524Z,28.50
2022-09-28T01:10:15.459Z,28.27
2022-09-28T01:12:42.443Z,29.08
2022-09-28T01:15:10.640Z,30.27
2022-09-28T01:17:50.365Z,29.20
2022-09-28T01:20:31.351Z,28.70
2022-09-28T01:23:31.011Z,29.10
2022-09-28T01:26:10.883Z,28.80
2022-09-28T01:28:40.015Z,32.05
2022-09-28T01:33:48.674Z,34.15
2022-09-28T01:36:28.429Z,36.33
2022-09-28T01:39:01.338Z,34.60
2022-09-28T01:41:30.516Z,37.67
2022-09-28T01:46:42.162Z,33.20
2022-09-28T01:49:15.759Z,33.20
2022-09-28T01:52:19.549Z,37.10
2022-09-28T01:54:55.382Z,33.15
2022-09-28T01:57:44.730Z,34.13
2022-09-28T02:00:14.732Z,37.75
2022-09-28T02:02:48.880Z,39.92
2022-09-28T02:05:20.236Z,40.70
2022-09-28T02:08:02.815Z,41.92
2022-09-28T02:10:35.955Z,41.13
2022-09-28T02:13:09.717Z,39.78
2022-09-28T02:15:49.040Z,41.03
2022-09-28T02:18:16.787Z,39.30
2022-09-28T02:20:51.567Z,41.83
2022-09-28T02:23:23.987Z,39.35
2022-09-28T02:26:00.471Z,37.60
2022-09-28T02:28:28.123Z,38.10
2022-09-28T02:30:55.406Z,38.55
2022-09-28T02:33:28.382Z,41.53
2022-09-28T02:35:56.156Z,39.63
2022-09-28T02:38:24.129Z,38.97
2022-09-28T02:41:04.789Z,37.85
2022-09-28T02:43:48.941Z,34.70
2022-09-28T02:46:48.433Z,33.35
2022-09-28T02:49:47.780Z,33.30
2022-09-28T02:52:33.551Z,33.75
2022-09-28T02:55:03.808Z,31.08
2022-09-28T02:57:56.756Z,32.13
2022-09-28T03:00:24.562Z,32.22
2022-09-28T03:06:52.384Z,32.55
2022-09-28T03:09:42.721Z,33.13
2022-09-28T03:12:14.121Z,33.03
2022-09-28T03:14:42.404Z,32.50
2022-09-28T03:17:09.915Z,73.68
2022-09-28T03:19:44.017Z,61.20
2022-09-28T03:22:11.252Z,49.30
2022-09-28T03:24:38.393Z,41.42
2022-09-28T03:27:11.216Z,38.72
2022-09-28T03:29:39.411Z,40.00
2022-09-28T03:32:06.730Z,39.58
2022-09-28T03:34:33.806Z,39.97
2022-09-28T03:37:01.974Z,42.83
2022-09-28T03:39:30.999Z,42.42
2022-09-28T03:42:00.536Z,41.53
2022-09-28T03:44:27.793Z,40.50
2022-09-28T03:46:54.842Z,39.08
2022-09-28T03:49:22.417Z,39.90
2022-09-28T03:51:50.243Z,37.85
2022-09-28T03:54:17.619Z,39.90
2022-09-28T03:56:44.788Z,39.40
2022-09-28T03:59:12.092Z,39.63
2022-09-28T04:01:39.385Z,38.67
2022-09-28T04:04:06.523Z,38.88
2022-09-28T04:06:34.541Z,38.42
2022-09-28T04:09:01.903Z,38.20
2022-09-28T04:11:42.841Z,37.13
2022-09-28T04:14:16.959Z,40.72
2022-09-28T04:16:44.394Z,36.30
2022-09-28T04:19:12.622Z,37.95
2022-09-28T04:21:46.826Z,38.90
2022-09-28T04:24:16.789Z,40.80
2022-09-28T04:26:46.546Z,42.88
2022-09-28T04:29:16.567Z,41.35
2022-09-28T04:31:52.152Z,56.85
2022-09-28T04:34:22.483Z,44.35
2022-09-28T04:36:50.108Z,44.22
2022-09-28T04:39:18.350Z,42.90
2022-09-28T04:41:48.314Z,41.78
2022-09-28T04:44:15.973Z,39.25
2022-09-28T04:46:47.095Z,38.67
2022-09-28T04:49:14.839Z,37.65
2022-09-28T04:51:42.238Z,33.53
2022-09-28T04:54:09.292Z,31.95
2022-09-28T04:56:36.605Z,31.98
2022-09-28T04:59:04.573Z,33.70
2022-09-28T05:01:31.639Z,35.08
2022-09-28T05:04:02.590Z,34.88
2022-09-28T05:06:30.853Z,34.25
2022-09-28T05:09:00.082Z,31.25
2022-09-28T05:11:28.092Z,30.60
2022-09-28T05:13:55.340Z,27.60
2022-09-28T05:16:23.140Z,28.63
2022-09-28T05:18:57.541Z,28.55
2022-09-28T05:24:08.934Z,26.98
2022-09-28T05:26:40.790Z,26.88
2022-09-28T05:29:08.225Z,26.48
2022-09-28T05:34:18.028Z,24.25
2022-09-28T05:37:22.217Z,25.33
2022-09-28T05:39:53.024Z,24.25
2022-09-28T05:42:27.285Z,23.30
2022-09-28T05:44:54.777Z,23.15
2022-09-28T05:47:22.388Z,25.05
2022-09-28T05:49:50.531Z,23.38
2022-09-28T05:52:18.511Z,25.40
2022-09-28T05:54:57.527Z,25.15
2022-09-28T05:57:32.353Z,26.10
2022-09-28T05:59:59.512Z,26.70
2022-09-28T06:02:42.026Z,27.02
2022-09-28T06:05:28.543Z,27.17
2022-09-28T06:07:57.951Z,25.92
2022-09-28T06:10:27.786Z,26.75
2022-09-28T06:12:56.930Z,27.60
2022-09-28T06:15:26.882Z,28.73
2022-09-28T06:18:10.828Z,26.42
2022-09-28T06:20:43.968Z,25.63
2022-09-28T06:26:04.831Z,26.42
2022-09-28T06:28:31.937Z,24.40
2022-09-28T06:31:02.013Z,23.92
2022-09-28T06:36:25.958Z,23.75
2022-09-28T06:38:53.351Z,23.25
2022-09-28T06:41:20.353Z,22.50
2022-09-28T06:43:48.615Z,20.65
2022-09-28T06:46:16.088Z,21.77
2022-09-28T06:48:45.128Z,19.48
2022-09-28T06:51:13.274Z,20.23
2022-09-28T06:53:44.496Z,18.50
2022-09-28T06:56:15.861Z,17.98
2022-09-28T06:58:45.786Z,18.27
2022-09-28T07:01:29.758Z,18.23
2022-09-28T07:04:04.778Z,18.40
2022-09-28T07:06:31.735Z,17.92
2022-09-28T07:09:21.693Z,17.27
2022-09-28T07:11:51.996Z,17.00
2022-09-28T07:14:43.409Z,18.52
2022-09-28T07:17:14.488Z,17.73
2022-09-28T07:19:47.185Z,17.63
2022-09-28T07:22:19.327Z,17.52
2022-09-28T07:25:04.705Z,17.95
2022-09-28T07:33:18.975Z,15.57
2022-09-28T07:35:55.827Z,15.95
2022-09-28T07:38:26.151Z,15.13
2022-09-28T07:41:11.778Z,15.13
2022-09-28T07:49:12.619Z,15.30
2022-09-28T07:51:39.876Z,15.43
2022-09-28T07:54:06.913Z,14.50
2022-09-28T07:56:35.038Z,15.73
2022-09-28T07:59:01.990Z,15.05
2022-09-28T08:01:31.051Z,14.85
2022-09-28T08:03:58.742Z,16.00
2022-09-28T08:06:30.208Z,14.93
2022-09-28T08:09:10.592Z,15.23
2022-09-28T08:11:39.390Z,14.60
2022-09-28T08:14:06.551Z,14.02
2022-09-28T08:16:33.636Z,13.73
2022-09-28T08:19:03.353Z,14.60
2022-09-28T08:21:48.559Z,14.65
2022-09-28T08:24:31.369Z,13.38
2022-09-28T08:27:05.126Z,14.73
2022-09-28T08:29:51.129Z,14.48
2022-09-28T08:32:21.237Z,16.63
2022-09-28T08:34:48.766Z,14.32
2022-09-28T08:37:15.948Z,14.70
2022-09-28T08:39:43.315Z,15.75
2022-09-28T08:42:29.479Z,14.73
2022-09-28T08:45:00.313Z,15.35
2022-09-28T08:48:09.571Z,15.13
2022-09-28T08:50:48.685Z,15.82
2022-09-28T08:53:25.354Z,15.82
2022-09-28T08:55:53.015Z,15.95
2022-09-28T09:01:16.836Z,16.42
2022-09-28T09:03:47.109Z,16.48
2022-09-28T09:06:45.856Z,15.10
2022-09-28T09:09:22.444Z,14.27
2022-09-28T09:11:57.467Z,14.60
2022-09-28T09:14:36.665Z,14.75
2022-09-28T09:17:22.764Z,15.02
2022-09-28T09:19:55.508Z,14.38
2022-09-28T09:22:33.389Z,14.27
2022-09-28T09:25:19.205Z,16.00
2022-09-28T09:27:56.045Z,15.52
2022-09-28T09:30:25.495Z,15.05
2022-09-28T09:33:13.276Z,14.38
2022-09-28T09:35:40.304Z,15.85
2022-09-28T09:38:33.147Z,14.68
2022-09-28T09:41:19.229Z,15.13
2022-09-28T09:44:13.623Z,14.82
2022-09-28T09:49:21.172Z,14.75
2022-09-28T09:52:30.139Z,16.90
2022-09-28T09:55:10.473Z,15.50
2022-09-28T09:57:45.818Z,15.93
2022-09-28T10:00:15.185Z,16.20
2022-09-28T10:02:45.494Z,15.98
2022-09-28T10:05:12.623Z,16.20
2022-09-28T10:07:45.098Z,15.65
2022-09-28T10:10:37.371Z,17.30
2022-09-28T10:13:05.488Z,13.63
2022-09-28T10:15:39.646Z,15.98
2022-09-28T10:18:12.427Z,14.23
2022-09-28T10:20:42.371Z,13.52
2022-09-28T10:23:17.825Z,14.10
2022-09-28T10:25:48.087Z,14.18
2022-09-28T10:28:23.593Z,12.77
2022-09-28T10:30:51.466Z,12.82
2022-09-28T10:33:33.512Z,10.90
2022-09-28T10:36:07.087Z,13.85
2022-09-28T10:38:36.120Z,13.13
2022-09-28T10:41:11.136Z,14.05
2022-09-28T10:44:06.343Z,13.60
2022-09-28T10:46:35.309Z,12.95
2022-09-28T10:49:05.074Z,14.32
2022-09-28T10:51:52.199Z,12.90
2022-09-28T10:54:23.052Z,13.68
2022-09-28T10:56:51.179Z,13.80
2022-09-28T10:59:30.494Z,13.43
2022-09-28T11:02:17.648Z,12.85
2022-09-28T11:04:55.554Z,12.98
2022-09-28T11:07:27.053Z,12.60
2022-09-28T11:09:55.617Z,10.57
2022-09-28T11:12:38.294Z,10.73
2022-09-28T11:15:17.820Z,10.82
2022-09-28T11:20:45.469Z,8.52
2022-09-28T11:23:23.971Z,7.50
2022-09-28T11:26:18.365Z,6.75
2022-09-28T11:28:51.826Z,6.38
2022-09-28T11:31:31.665Z,6.32
2022-09-28T11:34:27.767Z,6.85
2022-09-28T11:37:13.679Z,6.25
2022-09-28T11:40:08.457Z,7.22
2022-09-28T11:42:45.864Z,6.90
2022-09-28T11:45:23.245Z,7.43
2022-09-28T11:48:04.928Z,7.38
2022-09-28T11:50:52.410Z,7.25
2022-09-28T11:53:23.080Z,5.80
2022-09-28T11:55:58.694Z,5.15
2022-09-28T11:58:47.338Z,4.80
2022-09-28T12:01:44.777Z,3.25
2022-09-28T12:11:44.147Z,3.78
2022-09-28T12:14:29.745Z,3.53
2022-09-28T12:17:20.009Z,4.18
2022-09-28T12:19:55.498Z,3.95
2022-09-28T12:22:33.666Z,3.70
2022-09-28T12:25:05.125Z,3.05
2022-09-28T12:27:47.911Z,3.63
2022-09-28T12:33:17.685Z,3.45
2022-09-28T12:39:35.587Z,3.13
2022-09-28T12:42:35.436Z,3.35
2022-09-28T12:45:38.458Z,2.33
2022-09-28T12:51:25.450Z,2.97
2022-09-28T12:54:11.852Z,2.30
2022-09-28T12:56:48.492Z,2.28
2022-09-28T12:59:25.370Z,2.60
2022-09-28T13:02:09.148Z,3.30
2022-09-28T13:05:13.368Z,2.45
2022-09-28T13:08:04.833Z,1.98
2022-09-28T13:10:55.994Z,2.30
2022-09-28T13:13:41.510Z,2.30
2022-09-28T13:16:18.310Z,2.10
2022-09-28T13:19:08.597Z,3.00
2022-09-28T13:21:48.803Z,2.50
2022-09-28T13:24:32.544Z,2.35
2022-09-28T13:27:15.534Z,2.58
2022-09-28T13:30:14.751Z,2.30
2022-09-28T13:32:44.499Z,2.20
2022-09-28T13:35:15.740Z,2.75
2022-09-28T13:37:43.193Z,2.25
2022-09-28T13:40:11.513Z,2.80
2022-09-28T13:45:15.116Z,2.65
2022-09-28T13:48:11.593Z,2.85
2022-09-28T13:51:06.931Z,3.00
2022-09-28T13:53:52.530Z,2.75
2022-09-28T13:56:27.755Z,2.58
2022-09-28T14:01:56.332Z,2.28
2022-09-28T14:04:44.359Z,2.72
2022-09-28T14:07:20.882Z,2.60
2022-09-28T14:09:49.502Z,2.47
2022-09-28T14:12:35.330Z,2.65
2022-09-28T14:15:06.662Z,2.80
2022-09-28T14:17:54.742Z,2.80
2022-09-28T14:20:24.960Z,4.00
2022-09-28T14:22:55.729Z,3.28
2022-09-28T14:25:25.831Z,2.85
2022-09-28T14:28:21.068Z,2.85
2022-09-28T14:30:53.979Z,3.13
2022-09-28T14:33:22.181Z,2.95
2022-09-28T14:35:56.605Z,3.80
2022-09-28T14:38:47.691Z,3.10
2022-09-28T14:44:23.975Z,3.15
2022-09-28T14:47:25.346Z,3.17
2022-09-28T14:50:01.278Z,3.15
2022-09-28T14:52:41.127Z,3.10
2022-09-28T14:55:14.571Z,3.22
2022-09-28T14:57:43.120Z,3.10
2022-09-28T15:02:52.709Z,4.03
2022-09-28T15:05:44.199Z,4.28
2022-09-28T15:08:12.203Z,4.57
2022-09-28T15:10:48.471Z,4.13
2022-09-28T15:13:36.308Z,5.82
2022-09-28T15:16:13.753Z,6.18
2022-09-28T15:19:30.101Z,5.18
2022-09-28T15:22:17.324Z,6.88
2022-09-28T15:25:14.192Z,4.60
2022-09-28T15:27:43.167Z,5.47
2022-09-28T15:30:26.667Z,5.80
2022-09-28T15:32:57.049Z,6.15
2022-09-28T15:35:27.115Z,5.10
2022-09-28T15:37:55.753Z,4.05
2022-09-28T15:40:32.938Z,3.88
2022-09-28T15:43:00.658Z,4.00
2022-09-28T15:45:37.154Z,4.93
2022-09-28T15:48:31.146Z,6.03
2022-09-28T15:51:13.556Z,5.18
2022-09-28T15:54:07.067Z,5.53
2022-09-28T16:00:36.414Z,4.65
2022-09-28T16:05:46.900Z,3.97
2022-09-28T16:08:25.068Z,4.72
2022-09-28T16:10:57.195Z,4.13
2022-09-28T16:13:58.414Z,5.65
2022-09-28T16:16:31.071Z,5.18
2022-09-28T16:19:03.694Z,6.18
2022-09-28T16:21:37.672Z,5.10
2022-09-28T16:24:05.354Z,4.97
2022-09-28T16:26:40.533Z,5.63
2022-09-28T16:31:56.167Z,5.70
2022-09-28T16:34:27.231Z,5.68
2022-09-28T16:36:54.793Z,5.18
2022-09-28T16:39:25.618Z,5.20
2022-09-28T16:41:56.149Z,6.18
2022-09-28T16:44:26.692Z,6.70
2022-09-28T16:46:57.779Z,6.03
2022-09-28T16:49:26.433Z,6.72
2022-09-28T16:51:53.496Z,6.75
2022-09-28T16:54:44.170Z,7.78
2022-09-28T16:57:17.350Z,7.32
2022-09-28T16:59:47.183Z,7.47
2022-09-28T17:02:45.299Z,8.38
2022-09-28T17:05:08.062Z,7.70
2022-09-28T17:07:35.581Z,9.20
2022-09-28T17:10:12.393Z,8.38
2022-09-28T17:12:40.363Z,7.43
2022-09-28T17:15:07.950Z,8.00
2022-09-28T17:17:35.600Z,8.02
2022-09-28T17:20:22.972Z,9.20
2022-09-28T17:22:54.067Z,8.57
2022-09-28T17:25:26.749Z,10.20
2022-09-28T17:27:57.466Z,10.50
2022-09-28T17:30:26.406Z,8.93
2022-09-28T17:32:53.424Z,10.23
2022-09-28T17:35:25.267Z,8.93
2022-09-28T17:37:54.738Z,9.85
2022-09-28T17:40:28.453Z,9.40
2022-09-28T17:43:01.421Z,9.25
2022-09-28T17:45:36.878Z,10.13
2022-09-28T17:48:15.884Z,8.13
2022-09-28T17:50:46.445Z,9.95
2022-09-28T17:53:15.662Z,10.55
2022-09-28T18:05:40.329Z,8.23
2022-09-28T18:08:23.916Z,8.85
2022-09-28T18:10:51.577Z,7.32
2022-09-28T18:13:19.388Z,7.53
2022-09-28T18:15:50.136Z,7.45
2022-09-28T18:18:24.310Z,8.45
2022-09-28T18:20:52.600Z,8.43
2022-09-28T18:23:19.799Z,7.90
2022-09-28T18:25:47.308Z,9.65
2022-09-28T18:28:22.185Z,7.90
2022-09-28T18:31:04.501Z,9.60
2022-09-28T18:33:34.998Z,10.15
2022-09-28T18:36:04.631Z,8.75
2022-09-28T18:38:40.059Z,9.38
2022-09-28T18:41:14.579Z,8.95
2022-09-28T18:43:43.347Z,10.75
2022-09-28T18:46:12.110Z,8.43
2022-09-28T18:48:40.652Z,6.57
2022-09-28T18:51:13.525Z,6.15
2022-09-28T18:53:41.501Z,7.05
2022-09-28T18:56:20.817Z,7.05
2022-09-28T18:58:52.636Z,7.15
2022-09-28T19:01:30.339Z,8.07
2022-09-28T19:04:05.048Z,7.40
2022-09-28T19:06:42.146Z,7.75
2022-09-28T19:09:11.910Z,9.57
2022-09-28T19:11:39.000Z,7.35
2022-09-28T19:14:11.223Z,8.52
2022-09-28T19:16:38.520Z,9.02
2022-09-28T19:19:06.752Z,8.20
2022-09-28T19:21:33.883Z,8.50
2022-09-28T19:24:02.935Z,9.88
2022-09-28T19:26:34.225Z,9.82
2022-09-28T19:29:05.234Z,8.80
2022-09-28T19:31:32.777Z,9.48
2022-09-28T19:33:59.902Z,10.13
2022-09-28T19:36:29.893Z,8.48
2022-09-28T19:41:46.074Z,7.38
2022-09-28T19:44:29.757Z,8.95
2022-09-28T19:46:59.922Z,8.75
2022-09-28T19:49:33.245Z,7.82
2022-09-28T19:52:16.796Z,7.82
2022-09-28T19:54:58.033Z,7.38
2022-09-28T19:57:27.980Z,8.02
2022-09-28T20:00:00.858Z,8.95
2022-09-28T20:02:29.135Z,8.25
2022-09-28T20:04:56.530Z,8.57
2022-09-28T20:07:23.871Z,8.43
2022-09-28T20:09:51.824Z,8.02
2022-09-28T20:12:19.203Z,8.25
2022-09-28T20:14:46.366Z,8.38
2022-09-28T20:17:13.472Z,7.97
2022-09-28T20:19:41.401Z,8.63
2022-09-28T20:22:08.498Z,7.93
2022-09-28T20:24:35.607Z,7.35
2022-09-28T20:27:02.987Z,8.45
2022-09-28T20:29:32.175Z,8.45
2022-09-28T20:32:03.076Z,8.35
2022-09-28T20:34:32.828Z,8.15
2022-09-28T20:37:00.033Z,8.60
2022-09-28T20:39:27.076Z,8.05
2022-09-28T20:41:57.975Z,7.97
2022-09-28T20:44:26.070Z,8.80
2022-09-28T20:46:56.767Z,7.88
2022-09-28T20:49:24.928Z,8.95
2022-09-28T20:51:51.985Z,8.73
2022-09-28T20:54:23.282Z,11.13
2022-09-28T20:56:52.142Z,7.78
2022-09-28T20:59:23.251Z,9.65
2022-09-28T21:01:52.692Z,8.10
2022-09-28T21:04:20.133Z,7.82
2022-09-28T21:06:47.486Z,8.35
2022-09-28T21:09:15.040Z,8.23
2022-09-28T21:11:43.132Z,8.40
2022-09-28T21:14:10.683Z,8.68
2022-09-28T21:16:39.483Z,8.23
2022-09-28T21:19:16.805Z,7.90
2022-09-28T21:21:43.842Z,9.18
2022-09-28T21:24:11.215Z,8.00
2022-09-28T21:26:39.150Z,9.27
2022-09-28T21:29:11.672Z,8.27
2022-09-28T21:31:46.925Z,7.75
2022-09-28T21:34:19.486Z,7.22
2022-09-28T21:36:48.489Z,8.23
2022-09-28T21:39:16.347Z,8.80
2022-09-28T21:41:46.164Z,7.82
2022-09-28T21:44:14.825Z,7.88
2022-09-28T21:46:42.333Z,8.50
2022-09-28T21:49:34.920Z,8.57
2022-09-28T21:52:03.560Z,9.10
2022-09-28T21:55:22.759Z,8.18
2022-09-28T21:57:51.582Z,7.45
2022-09-28T22:00:25.477Z,7.93
2022-09-28T22:02:53.045Z,7.85
2022-09-28T22:05:20.171Z,7.47
2022-09-28T22:07:47.592Z,7.40
2022-09-28T22:10:16.372Z,8.27
2022-09-28T22:15:11.494Z,7.55
2022-09-28T22:17:38.888Z,8.18
2022-09-28T22:20:08.738Z,7.00
2022-09-28T22:22:35.779Z,7.82
2022-09-28T22:25:03.228Z,7.82
2022-09-28T22:27:31.848Z,8.05
2022-09-28T22:29:58.908Z,7.35
2022-09-28T22:32:28.250Z,7.65
2022-09-28T22:34:55.268Z,7.18
2022-09-28T22:37:22.372Z,9.00
2022-09-28T22:39:49.956Z,7.72
2022-09-28T22:42:17.454Z,7.20
2022-09-28T22:44:44.505Z,7.25
2022-09-28T22:47:12.123Z,7.00
2022-09-28T22:49:39.215Z,6.57
2022-09-28T22:52:06.356Z,7.03
2022-09-28T22:54:34.304Z,7.32
2022-09-28T22:57:01.274Z,7.05
2022-09-28T22:59:28.409Z,7.60
2022-09-28T23:02:00.490Z,7.13
2022-09-28T23:04:27.713Z,7.07
2022-09-28T23:06:56.814Z,6.50
2022-09-28T23:09:31.535Z,7.28
2022-09-28T23:11:58.875Z,6.43
2022-09-28T23:14:28.991Z,5.53
2022-09-28T23:17:03.609Z,5.57
2022-09-28T23:19:31.431Z,4.80
2022-09-28T23:22:02.489Z,5.90
2022-09-28T23:24:49.925Z,5.63
2022-09-28T23:27:19.809Z,5.57
2022-09-28T23:29:48.891Z,6.13
2022-09-28T23:34:44.454Z,6.00
2022-09-28T23:37:11.575Z,5.70
2022-09-28T23:39:39.300Z,5.32
2022-09-28T23:42:06.988Z,6.53
2022-09-28T23:44:35.591Z,6.20
2022-09-28T23:47:03.410Z,6.57
2022-09-28T23:49:30.781Z,6.75
2022-09-28T23:51:57.766Z,6.05
2022-09-28T23:54:24.713Z,6.22
2022-09-28T23:56:52.775Z,5.55
2022-09-28T23:59:20.496Z,6.10
